Time;durP1;ratioP1;P1;durP2;ratioP2;P2;SDS_P1;SDS_P2;PMS_P1;PMS_P2;Temp;Humidity;BMP_temperature;BMP_pressure;BME280_temperature;BME280_humidity;BME280_pressure;Samples;Min_cycle;Max_cycle;Signal;HPM_P1;HPM_P2
2020/12/13 00:00:43;;;;;;;108.07;49.63;;;5.10;99.90;;;;;;5151944;27;20026;-81
2020/12/13 00:03:09;;;;;;;113.25;50.15;;;5.10;99.90;;;;;;5135157;27;20057;-81
2020/12/13 00:05:35;;;;;;;110.85;50.80;;;5.10;99.90;;;;;;5131092;27;20396;-80
2020/12/13 00:08:01;;;;;;;113.63;52.72;;;5.10;99.90;;;;;;5131133;27;20058;-81
2020/12/13 00:10:26;;;;;;;118.35;52.50;;;5.10;99.90;;;;;;5124129;27;20608;-81
2020/12/13 00:12:52;;;;;;;117.18;51.33;;;5.10;99.90;;;;;;5132596;27;20027;-81
2020/12/13 00:15:18;;;;;;;117.88;51.00;;;5.10;99.90;;;;;;5124345;27;20031;-81
2020/12/13 00:17:44;;;;;;;115.47;52.40;;;5.00;99.90;;;;;;5127479;27;20027;-81
2020/12/13 00:20:09;;;;;;;126.70;53.65;;;5.10;99.90;;;;;;5153546;27;20046;-81
2020/12/13 00:22:35;;;;;;;116.20;53.35;;;5.00;99.90;;;;;;5153071;27;20023;-82
2020/12/13 00:25:00;;;;;;;125.10;52.63;;;5.00;99.90;;;;;;5130465;27;20043;-82
2020/12/13 00:27:26;;;;;;;126.22;51.78;;;5.10;99.90;;;;;;5131208;27;20105;-83
2020/12/13 00:29:52;;;;;;;131.05;54.25;;;5.10;99.90;;;;;;5134327;27;20031;-83
2020/12/13 00:32:17;;;;;;;121.32;53.00;;;5.00;99.90;;;;;;5133356;27;20032;-82
2020/12/13 00:34:43;;;;;;;134.02;56.80;;;5.00;99.90;;;;;;5129120;27;20057;-82
2020/12/13 00:37:09;;;;;;;138.20;54.58;;;4.90;99.90;;;;;;5132398;27;20401;-83
2020/12/13 00:39:38;;;;;;;141.98;57.00;;;4.90;99.90;;;;;;5133166;27;20034;-83
2020/12/13 00:42:04;;;;;;;137.98;59.38;;;4.90;99.90;;;;;;5113899;27;20030;-82
2020/12/13 00:44:30;;;;;;;142.10;60.08;;;4.90;99.90;;;;;;5134343;27;20046;-82
2020/12/13 00:46:55;;;;;;;154.68;61.53;;;5.00;99.90;;;;;;5134103;27;20022;-82
2020/12/13 00:49:21;;;;;;;135.52;54.90;;;4.90;99.90;;;;;;5144199;27;20077;-81
2020/12/13 00:51:47;;;;;;;132.43;53.88;;;4.90;99.90;;;;;;5133478;27;20027;-82
2020/12/13 00:54:12;;;;;;;141.43;57.45;;;4.90;99.90;;;;;;5133813;27;20483;-81
2020/12/13 00:56:38;;;;;;;147.43;56.97;;;5.00;99.90;;;;;;5134075;27;20029;-82
2020/12/13 00:59:03;;;;;;;151.27;58.63;;;4.90;99.90;;;;;;5133729;27;20023;-82
2020/12/13 01:01:29;;;;;;;159.90;55.50;;;4.90;99.90;;;;;;5113396;27;20025;-81
2020/12/13 01:03:55;;;;;;;158.80;60.58;;;4.90;99.90;;;;;;5112889;27;20115;-82
2020/12/13 01:06:24;;;;;;;144.38;56.00;;;4.90;99.90;;;;;;5133210;27;20092;-82
2020/12/13 01:08:52;;;;;;;151.55;57.13;;;4.90;99.90;;;;;;5132761;27;20030;-82
2020/12/13 01:11:36;;;;;;;153.43;59.50;;;5.00;99.90;;;;;;5132106;27;20034;-81
2020/12/13 01:14:02;;;;;;;161.13;57.65;;;5.00;99.90;;;;;;5126580;27;20023;-82
2020/12/13 01:16:28;;;;;;;163.55;60.22;;;5.00;99.90;;;;;;5113103;27;20023;-82
2020/12/13 01:18:54;;;;;;;151.95;58.90;;;5.00;99.90;;;;;;5131435;27;20026;-82
2020/12/13 01:21:22;;;;;;;165.10;60.83;;;5.00;99.90;;;;;;5112903;27;20059;-83
2020/12/13 01:23:48;;;;;;;166.25;60.35;;;5.00;99.90;;;;;;5114405;27;20019;-82
2020/12/13 01:26:15;;;;;;;158.30;57.95;;;5.00;99.90;;;;;;5133755;27;20026;-82
2020/12/13 01:28:41;;;;;;;152.77;56.40;;;5.00;99.90;;;;;;5132544;27;20110;-81
2020/12/13 01:31:08;;;;;;;174.13;58.65;;;5.00;99.90;;;;;;5112896;27;20106;-82
2020/12/13 01:33:34;;;;;;;172.07;58.15;;;5.10;99.90;;;;;;5131278;27;20015;-82
2020/12/13 01:36:00;;;;;;;169.05;60.97;;;5.10;99.90;;;;;;5113684;27;20031;-82
2020/12/13 01:38:25;;;;;;;180.45;60.25;;;5.00;99.90;;;;;;5111799;27;20028;-82
2020/12/13 01:40:58;;;;;;;177.70;58.90;;;5.00;99.90;;;;;;5124327;27;20431;-83
2020/12/13 01:43:24;;;;;;;162.10;59.50;;;5.00;99.90;;;;;;5149286;27;20014;-82
2020/12/13 01:45:50;;;;;;;180.00;60.90;;;5.10;99.90;;;;;;5129260;27;20043;-82
2020/12/13 01:48:17;;;;;;;156.43;59.00;;;5.10;99.90;;;;;;5129586;27;20026;-82
2020/12/13 01:51:00;;;;;;;164.45;58.38;;;5.10;99.90;;;;;;5144873;27;20030;-82
2020/12/13 01:53:27;;;;;;;161.27;55.05;;;5.00;99.90;;;;;;5133423;27;20018;-83
2020/12/13 01:55:57;;;;;;;177.23;58.63;;;5.00;99.90;;;;;;5133847;27;20471;-82
2020/12/13 01:58:34;;;;;;;166.45;60.00;;;5.00;99.90;;;;;;5133030;27;20363;-82
2020/12/13 02:01:02;;;;;;;167.77;62.17;;;5.00;99.90;;;;;;5116667;27;20031;-83
2020/12/13 02:03:51;;;;;;;180.30;57.83;;;5.00;99.90;;;;;;5112018;27;20379;-81
2020/12/13 02:06:22;;;;;;;160.40;57.13;;;5.10;99.90;;;;;;5111366;27;20044;-80
2020/12/13 02:08:49;;;;;;;175.57;60.90;;;5.10;99.90;;;;;;5137326;27;20019;-81
2020/12/13 02:11:15;;;;;;;157.82;57.60;;;5.10;99.90;;;;;;5116520;27;20035;-82
2020/12/13 02:13:40;;;;;;;170.90;60.30;;;5.20;99.90;;;;;;5114260;27;21905;-81
2020/12/13 02:16:07;;;;;;;171.73;57.88;;;5.10;99.90;;;;;;5132594;27;20027;-81
2020/12/13 02:18:34;;;;;;;171.50;57.72;;;5.20;99.90;;;;;;5151339;27;20015;-81
2020/12/13 02:21:01;;;;;;;168.00;58.58;;;5.10;99.90;;;;;;5116850;27;20518;-81
2020/12/13 02:23:29;;;;;;;159.13;58.45;;;5.10;99.90;;;;;;5111570;28;20068;-81
2020/12/13 02:25:55;;;;;;;159.10;58.83;;;5.20;99.90;;;;;;5127232;27;20073;-81
2020/12/13 02:28:21;;;;;;;180.13;57.22;;;5.10;99.90;;;;;;5150838;27;20030;-81
2020/12/13 02:30:47;;;;;;;149.07;56.63;;;5.10;99.90;;;;;;5145636;27;20550;-82
2020/12/13 02:33:13;;;;;;;155.18;56.67;;;5.20;99.90;;;;;;5132668;27;20105;-80
2020/12/13 02:35:39;;;;;;;151.48;55.30;;;5.10;99.90;;;;;;5132066;27;20471;-82
2020/12/13 02:38:04;;;;;;;142.18;53.55;;;5.20;99.90;;;;;;5151603;27;20091;-82
2020/12/13 02:40:30;;;;;;;146.50;53.70;;;5.20;99.90;;;;;;5123220;28;20015;-81
2020/12/13 02:42:56;;;;;;;142.05;52.25;;;5.10;99.90;;;;;;5112144;28;20383;-82
2020/12/13 02:45:21;;;;;;;159.40;53.50;;;5.10;99.90;;;;;;5127862;27;20039;-82
2020/12/13 02:47:47;;;;;;;144.23;55.97;;;5.20;99.90;;;;;;5150898;27;20034;-82
2020/12/13 02:50:13;;;;;;;147.95;53.15;;;5.20;99.90;;;;;;5131816;27;20033;-82
2020/12/13 02:52:38;;;;;;;152.18;53.40;;;5.20;99.90;;;;;;5131986;27;20112;-81
2020/12/13 02:55:04;;;;;;;130.57;50.35;;;5.30;99.90;;;;;;5131769;27;20025;-82
2020/12/13 02:57:29;;;;;;;128.32;51.85;;;5.20;99.90;;;;;;5131821;27;20417;-81
2020/12/13 02:59:55;;;;;;;135.57;50.47;;;5.20;99.90;;;;;;5130684;27;20103;-81
2020/12/13 03:02:21;;;;;;;136.75;52.10;;;5.20;99.90;;;;;;5131309;27;20054;-81
2020/12/13 03:04:46;;;;;;;130.63;51.97;;;5.30;99.90;;;;;;5130789;27;20038;-82
2020/12/13 03:07:12;;;;;;;130.02;52.63;;;5.20;99.90;;;;;;5132105;27;20049;-82
2020/12/13 03:09:37;;;;;;;148.85;53.70;;;5.20;99.90;;;;;;5130079;27;20527;-81
2020/12/13 03:12:04;;;;;;;149.13;53.10;;;5.20;99.90;;;;;;5114861;27;20022;-82
2020/12/13 03:14:31;;;;;;;132.43;51.00;;;5.20;99.90;;;;;;5128075;27;20444;-82
2020/12/13 03:16:57;;;;;;;128.00;51.65;;;5.30;99.90;;;;;;5111299;28;20114;-82
2020/12/13 03:19:24;;;;;;;142.88;49.65;;;5.20;99.90;;;;;;5111587;27;20061;-82
2020/12/13 03:21:50;;;;;;;133.90;50.40;;;5.20;99.90;;;;;;5111656;28;20054;-81
2020/12/13 03:24:16;;;;;;;124.47;49.95;;;5.20;99.90;;;;;;5122613;27;20062;-81
2020/12/13 03:26:42;;;;;;;138.48;51.40;;;5.20;99.90;;;;;;5150715;27;20061;-81
2020/12/13 03:29:08;;;;;;;136.10;50.00;;;5.20;99.90;;;;;;5150986;27;20030;-81
2020/12/13 03:31:34;;;;;;;143.00;50.22;;;5.20;99.90;;;;;;5130276;27;20111;-82
2020/12/13 03:33:59;;;;;;;140.93;50.97;;;5.20;99.90;;;;;;5110889;28;20051;-82
2020/12/13 03:36:25;;;;;;;145.30;50.22;;;5.20;99.90;;;;;;5114682;27;20049;-82
2020/12/13 03:38:50;;;;;;;147.68;52.40;;;5.20;99.90;;;;;;5115206;27;20027;-82
2020/12/13 03:41:16;;;;;;;139.57;48.40;;;5.20;99.90;;;;;;5128957;27;20023;-81
2020/12/13 03:43:41;;;;;;;143.05;51.10;;;5.20;99.90;;;;;;5131794;27;20055;-82
2020/12/13 03:46:07;;;;;;;144.68;51.30;;;5.30;99.90;;;;;;5117158;27;20027;-81
2020/12/13 03:48:32;;;;;;;129.80;49.65;;;5.20;99.90;;;;;;5101823;28;20372;-81
2020/12/13 03:50:58;;;;;;;132.82;49.20;;;5.20;99.90;;;;;;5110066;28;20462;-81
2020/12/13 03:53:24;;;;;;;134.02;50.38;;;5.30;99.90;;;;;;5110257;28;20074;-82
2020/12/13 03:55:49;;;;;;;142.05;51.05;;;5.30;99.90;;;;;;5110353;28;20404;-79
2020/12/13 03:58:15;;;;;;;147.57;50.65;;;5.20;99.90;;;;;;5110885;28;20042;-81
2020/12/13 04:00:40;;;;;;;145.45;51.08;;;5.30;99.90;;;;;;5109686;28;20039;-81
2020/12/13 04:03:07;;;;;;;149.77;51.65;;;5.20;99.90;;;;;;5092289;28;20055;-81
2020/12/13 04:05:33;;;;;;;148.88;49.10;;;5.20;99.90;;;;;;5110327;28;20042;-82
2020/12/13 04:07:59;;;;;;;149.82;50.17;;;5.30;99.90;;;;;;5110028;28;20043;-81
2020/12/13 04:10:25;;;;;;;142.55;49.60;;;5.30;99.90;;;;;;5110317;28;20085;-81
2020/12/13 04:12:51;;;;;;;138.48;49.97;;;5.30;99.90;;;;;;5110147;28;20404;-81
2020/12/13 04:15:17;;;;;;;133.20;46.67;;;5.30;99.90;;;;;;5110379;28;20027;-81
2020/12/13 04:17:44;;;;;;;158.63;50.63;;;5.30;99.90;;;;;;5110349;28;20024;-81
2020/12/13 04:20:12;;;;;;;149.27;48.47;;;5.30;99.90;;;;;;5111122;28;20123;-81
2020/12/13 04:22:38;;;;;;;161.13;50.88;;;5.40;99.90;;;;;;5100084;28;20110;-81
2020/12/13 04:25:04;;;;;;;147.65;47.50;;;5.40;99.90;;;;;;5097759;28;20555;-81
2020/12/13 04:27:30;;;;;;;142.10;48.92;;;5.40;99.90;;;;;;5101731;28;20031;-82
2020/12/13 04:29:56;;;;;;;148.93;50.15;;;5.40;99.90;;;;;;5104404;27;20023;-81
2020/12/13 04:32:22;;;;;;;168.57;49.83;;;5.40;99.90;;;;;;5131750;27;20041;-81
2020/12/13 04:34:49;;;;;;;144.13;46.38;;;5.40;99.90;;;;;;5126053;27;20023;-81
2020/12/13 04:37:14;;;;;;;164.10;51.05;;;5.40;99.90;;;;;;5094024;28;20341;-81
2020/12/13 04:39:40;;;;;;;165.63;51.38;;;5.30;99.90;;;;;;5111918;28;20038;-81
2020/12/13 04:42:06;;;;;;;166.20;48.55;;;5.20;99.90;;;;;;5110776;28;20380;-80
2020/12/13 04:44:32;;;;;;;183.07;53.28;;;5.30;99.90;;;;;;5110909;28;20116;-81
2020/12/13 04:47:07;;;;;;;176.45;51.17;;;5.30;99.90;;;;;;5110298;28;20106;-81
2020/12/13 04:49:35;;;;;;;169.85;50.47;;;5.20;99.90;;;;;;5113660;27;20136;-82
2020/12/13 04:52:02;;;;;;;149.93;51.85;;;5.30;99.90;;;;;;5122667;27;20059;-81
2020/12/13 04:54:29;;;;;;;186.13;54.30;;;5.30;99.90;;;;;;5114392;27;20422;-82
2020/12/13 04:56:57;;;;;;;156.07;50.97;;;5.30;99.90;;;;;;5132113;27;20022;-83
2020/12/13 04:59:25;;;;;;;151.50;48.03;;;5.20;99.90;;;;;;5126227;27;20114;-81
2020/12/13 05:01:51;;;;;;;142.90;45.88;;;5.30;99.90;;;;;;5129946;27;20124;-81
2020/12/13 05:04:17;;;;;;;148.02;48.70;;;5.20;99.90;;;;;;5130150;27;20065;-81
2020/12/13 05:06:44;;;;;;;145.63;44.22;;;5.20;99.90;;;;;;5130296;27;20046;-81
2020/12/13 05:09:12;;;;;;;159.27;48.63;;;5.20;99.90;;;;;;5130438;27;20059;-81
2020/12/13 05:11:45;;;;;;;153.20;48.88;;;5.30;99.90;;;;;;5121144;27;20019;-81
2020/12/13 05:14:11;;;;;;;140.38;46.83;;;5.20;99.90;;;;;;5112243;27;20020;-80
2020/12/13 05:16:37;;;;;;;155.75;45.08;;;5.30;99.90;;;;;;5131424;27;20095;-81
2020/12/13 05:19:07;;;;;;;144.05;43.08;;;5.30;99.90;;;;;;5128606;27;20019;-81
2020/12/13 05:21:35;;;;;;;139.00;48.22;;;5.30;99.90;;;;;;5131141;27;20067;-81
2020/12/13 05:24:07;;;;;;;148.82;46.95;;;5.20;99.90;;;;;;5130394;27;20023;-81
2020/12/13 05:26:32;;;;;;;149.07;45.88;;;5.30;99.90;;;;;;5130011;27;20027;-82
2020/12/13 05:29:01;;;;;;;157.77;46.83;;;5.20;99.90;;;;;;5129144;27;20054;-81
2020/12/13 05:31:29;;;;;;;136.43;45.03;;;5.20;99.90;;;;;;5129159;27;20027;-81
2020/12/13 05:34:04;;;;;;;144.98;44.80;;;5.30;99.90;;;;;;5129705;27;20479;-82
2020/12/13 05:36:35;;;;;;;153.32;48.25;;;5.20;99.90;;;;;;5130143;27;20494;-81
2020/12/13 05:39:01;;;;;;;129.40;45.10;;;5.20;99.90;;;;;;5131236;27;20015;-82
2020/12/13 05:41:32;;;;;;;142.88;45.90;;;5.30;99.90;;;;;;5100694;27;20039;-82
2020/12/13 05:44:07;;;;;;;;;;;5.30;99.90;;;;;;5130025;27;20020;-82
2020/12/13 05:46:55;;;;;;;147.10;46.88;;;5.20;99.90;;;;;;5109575;28;20356;-82
2020/12/13 05:52:08;;;;;;;131.52;42.33;;;5.20;99.90;;;;;;5108407;28;20071;-82
2020/12/13 05:54:34;;;;;;;145.43;45.45;;;5.20;99.90;;;;;;5107492;28;20104;-82
2020/12/13 05:57:02;;;;;;;136.18;45.05;;;5.20;99.90;;;;;;5090662;28;20038;-82
2020/12/13 05:59:30;;;;;;;140.23;47.17;;;5.20;99.90;;;;;;5090145;28;20507;-82
2020/12/13 06:01:57;;;;;;;148.05;44.40;;;5.20;99.90;;;;;;5091202;28;20028;-82
2020/12/13 06:04:28;;;;;;;139.52;45.40;;;5.10;99.90;;;;;;5091003;28;20097;-82
2020/12/13 06:06:55;;;;;;;145.70;46.60;;;5.10;99.90;;;;;;5090586;28;20496;-82
2020/12/13 06:09:33;;;;;;;137.77;45.17;;;5.20;99.90;;;;;;5090669;28;20040;-82
2020/12/13 06:12:12;;;;;;;161.02;50.38;;;5.10;99.90;;;;;;5091360;28;20031;-81
2020/12/13 06:14:41;;;;;;;131.60;43.40;;;5.10;99.90;;;;;;5087551;28;20016;-82
2020/12/13 06:17:07;;;;;;;143.38;44.22;;;5.20;99.90;;;;;;5089099;28;20467;-84
2020/12/13 06:19:36;;;;;;;126.47;43.38;;;5.20;99.90;;;;;;5104249;28;20030;-82
2020/12/13 06:22:03;;;;;;;138.73;45.50;;;5.20;99.90;;;;;;5091698;28;20136;-82
2020/12/13 06:24:29;;;;;;;146.13;46.47;;;5.20;99.90;;;;;;5093634;28;20084;-82
2020/12/13 06:26:56;;;;;;;131.02;41.67;;;5.20;99.90;;;;;;5110923;28;20028;-80
2020/12/13 06:29:24;;;;;;;142.10;43.75;;;5.20;99.90;;;;;;5098242;28;20027;-81
2020/12/13 06:31:52;;;;;;;121.93;41.08;;;5.10;99.90;;;;;;5116128;28;20027;-81
2020/12/13 06:34:18;;;;;;;116.65;41.47;;;5.20;99.90;;;;;;5136310;28;20023;-82
2020/12/13 06:36:45;;;;;;;119.07;42.42;;;5.10;99.90;;;;;;5131721;28;20016;-82
2020/12/13 06:39:14;;;;;;;136.80;41.05;;;5.20;99.90;;;;;;5113043;28;20506;-81
2020/12/13 06:41:51;;;;;;;119.55;39.80;;;5.10;99.90;;;;;;5092270;28;20371;-81
2020/12/13 06:44:17;;;;;;;105.22;39.47;;;5.10;99.90;;;;;;5110775;28;20035;-82
2020/12/13 06:46:46;;;;;;;128.30;39.50;;;5.20;99.90;;;;;;5111466;28;20437;-81
2020/12/13 06:49:14;;;;;;;111.25;38.83;;;5.10;99.90;;;;;;5111793;28;20027;-81
2020/12/13 06:51:43;;;;;;;119.72;39.97;;;5.10;99.90;;;;;;5112721;28;20023;-80
2020/12/13 06:54:11;;;;;;;123.03;39.95;;;5.20;99.90;;;;;;5111281;28;20024;-82
2020/12/13 06:56:38;;;;;;;112.43;39.33;;;5.20;99.90;;;;;;5109101;28;20032;-82
2020/12/13 06:59:07;;;;;;;113.13;36.20;;;5.20;99.90;;;;;;5130180;28;20023;-82
2020/12/13 07:01:39;;;;;;;106.30;35.83;;;5.20;99.90;;;;;;5111530;28;20088;-82
2020/12/13 07:04:43;;;;;;;99.50;37.45;;;5.20;99.90;;;;;;5130078;28;20058;-82
2020/12/13 07:09:35;;;;;;;100.30;36.13;;;5.20;99.90;;;;;;5132572;27;20038;-82
2020/12/13 07:12:02;;;;;;;103.82;38.03;;;5.20;99.90;;;;;;5154768;27;20054;-82
2020/12/13 07:14:31;;;;;;;94.80;37.95;;;5.20;99.90;;;;;;5133824;27;20018;-82
2020/12/13 07:17:12;;;;;;;94.68;36.33;;;5.10;99.90;;;;;;5115432;27;20058;-82
2020/12/13 07:19:39;;;;;;;100.28;36.05;;;5.20;99.90;;;;;;5115940;27;20031;-82
2020/12/13 07:22:11;;;;;;;95.20;35.50;;;5.20;99.90;;;;;;5133729;27;20033;-82
2020/12/13 07:24:38;;;;;;;89.50;35.72;;;5.20;99.90;;;;;;5126471;27;20035;-82
2020/12/13 07:27:04;;;;;;;101.90;34.47;;;5.20;99.90;;;;;;5137736;27;20062;-82
2020/12/13 07:29:34;;;;;;;89.93;34.35;;;5.20;99.90;;;;;;5134737;27;20106;-82
2020/12/13 07:32:01;;;;;;;80.78;34.42;;;5.20;99.90;;;;;;5136367;27;20105;-81
2020/12/13 07:34:29;;;;;;;97.13;34.95;;;5.20;99.90;;;;;;5110761;28;20419;-81
2020/12/13 07:36:55;;;;;;;89.47;34.58;;;5.20;99.90;;;;;;5070077;28;20480;-82
2020/12/13 07:39:22;;;;;;;87.75;35.25;;;5.20;99.90;;;;;;5053083;28;20033;-81
2020/12/13 07:41:48;;;;;;;100.93;35.53;;;5.20;99.90;;;;;;5053735;28;20024;-82
2020/12/13 07:44:16;;;;;;;90.05;34.42;;;5.10;99.90;;;;;;5052831;28;20044;-81
2020/12/13 07:46:43;;;;;;;96.05;34.60;;;5.10;99.90;;;;;;5052882;28;20060;-82
2020/12/13 07:49:18;;;;;;;108.85;35.90;;;5.10;99.90;;;;;;5036072;28;20040;-82
2020/12/13 07:51:51;;;;;;;90.03;34.92;;;5.20;99.90;;;;;;5049362;28;20120;-82
2020/12/13 07:54:18;;;;;;;89.57;35.63;;;5.10;99.90;;;;;;5034246;28;20432;-81
2020/12/13 07:56:48;;;;;;;101.78;35.35;;;5.20;99.90;;;;;;5052718;28;20440;-81
2020/12/13 07:59:24;;;;;;;87.35;34.60;;;5.20;99.90;;;;;;5069630;28;20454;-80
2020/12/13 08:01:54;;;;;;;111.68;36.90;;;5.30;99.90;;;;;;5053534;28;20115;-81
2020/12/13 08:04:33;;;;;;;91.07;35.80;;;5.20;99.90;;;;;;5054829;28;20036;-81
2020/12/13 08:07:05;;;;;;;107.88;36.25;;;5.20;99.90;;;;;;5110241;28;20051;-81
2020/12/13 08:09:30;;;;;;;104.47;36.70;;;5.20;99.90;;;;;;5110282;28;20096;-81
2020/12/13 08:11:57;;;;;;;113.53;37.90;;;5.20;99.90;;;;;;5093076;28;20107;-80
2020/12/13 08:14:25;;;;;;;102.25;38.53;;;5.20;99.90;;;;;;5076151;28;20573;-83
2020/12/13 08:16:55;;;;;;;108.10;36.63;;;5.20;99.90;;;;;;5109531;28;20116;-82
2020/12/13 08:19:33;;;;;;;106.25;34.72;;;5.20;99.90;;;;;;5092910;28;20030;-82
2020/12/13 08:22:05;;;;;;;104.20;37.10;;;5.20;99.90;;;;;;5120818;27;20035;-82
2020/12/13 08:24:32;;;;;;;112.18;35.58;;;5.20;99.90;;;;;;5114445;27;20027;-83
2020/12/13 08:26:59;;;;;;;112.53;39.40;;;5.20;99.90;;;;;;5137769;27;20056;-81
2020/12/13 08:29:26;;;;;;;114.68;37.40;;;5.20;99.90;;;;;;5153538;27;20383;-81
2020/12/13 08:31:53;;;;;;;122.95;35.10;;;5.20;99.90;;;;;;5137198;27;20502;-81
2020/12/13 08:34:27;;;;;;;118.65;39.78;;;5.30;99.90;;;;;;5136019;27;20064;-80
2020/12/13 08:36:54;;;;;;;111.30;36.67;;;5.30;99.90;;;;;;5116495;27;20049;-81
2020/12/13 08:39:31;;;;;;;127.72;40.17;;;5.40;99.90;;;;;;5117502;27;20087;-82
2020/12/13 08:41:58;;;;;;;132.75;36.28;;;5.30;99.90;;;;;;5116345;27;20019;-81
2020/12/13 08:44:35;;;;;;;114.63;38.72;;;5.40;99.90;;;;;;5115638;27;20041;-82
2020/12/13 08:47:08;;;;;;;139.82;40.10;;;5.40;99.90;;;;;;5123757;27;20055;-82
2020/12/13 08:49:36;;;;;;;141.80;39.83;;;5.40;99.90;;;;;;5115476;27;20034;-81
2020/12/13 08:52:26;;;;;;;143.63;41.10;;;5.40;99.90;;;;;;5132523;27;20491;-82
2020/12/13 08:54:54;;;;;;;152.07;41.60;;;5.40;99.90;;;;;;5012673;28;20042;-82
2020/12/13 08:57:30;;;;;;;160.73;41.72;;;5.40;99.90;;;;;;5020104;28;20048;-82
2020/12/13 09:00:19;;;;;;;140.95;40.33;;;5.30;99.90;;;;;;5048275;28;20147;-81
2020/12/13 09:03:04;;;;;;;128.52;40.42;;;5.30;99.90;;;;;;5032362;28;20078;-82
2020/12/13 09:05:33;;;;;;;163.27;42.90;;;5.30;99.90;;;;;;5023936;28;20406;-81
2020/12/13 09:08:00;;;;;;;168.13;43.95;;;5.30;99.90;;;;;;5028713;28;20083;-81
2020/12/13 09:10:27;;;;;;;151.15;41.65;;;5.30;99.90;;;;;;5038724;28;20063;-82
2020/12/13 09:12:53;;;;;;;175.57;41.67;;;5.40;99.90;;;;;;5032037;28;20029;-82
2020/12/13 09:15:21;;;;;;;183.40;46.53;;;5.40;99.90;;;;;;4989078;28;20451;-81
2020/12/13 09:17:57;;;;;;;160.18;41.67;;;5.40;99.90;;;;;;4963286;28;20030;-82
2020/12/13 09:20:28;;;;;;;202.88;41.65;;;5.40;99.90;;;;;;4973103;28;20072;-82
2020/12/13 09:23:06;;;;;;;171.00;44.03;;;5.40;99.90;;;;;;4972645;28;20137;-81
2020/12/13 09:25:43;;;;;;;210.45;46.60;;;5.40;99.90;;;;;;4972337;28;20120;-81
2020/12/13 09:28:10;;;;;;;162.07;44.78;;;5.40;99.90;;;;;;4972677;28;20023;-80
2020/12/13 09:30:37;;;;;;;165.35;45.72;;;5.40;99.90;;;;;;4960462;28;20565;-81
2020/12/13 09:33:04;;;;;;;206.35;45.10;;;5.50;99.90;;;;;;5067274;28;20037;-81
2020/12/13 09:35:31;;;;;;;152.13;44.40;;;5.50;99.90;;;;;;5070990;28;20060;-81
2020/12/13 09:37:58;;;;;;;219.40;48.53;;;5.60;99.90;;;;;;5088037;28;20024;-81
2020/12/13 09:40:24;;;;;;;265.92;53.20;;;5.60;99.90;;;;;;5062883;28;20040;-81
2020/12/13 09:42:49;;;;;;;185.48;46.25;;;5.60;99.90;;;;;;5058060;28;20717;-81
2020/12/13 09:45:15;;;;;;;174.38;46.95;;;5.60;99.90;;;;;;5071797;28;20139;-81
2020/12/13 09:47:41;;;;;;;231.73;53.67;;;5.60;99.90;;;;;;5087388;28;20028;-81
2020/12/13 09:50:06;;;;;;;214.68;49.90;;;5.60;99.90;;;;;;5088207;28;20043;-81
2020/12/13 09:52:34;;;;;;;176.13;47.80;;;5.60;99.90;;;;;;5072449;28;20485;-81
2020/12/13 09:54:59;;;;;;;289.77;54.70;;;5.70;99.90;;;;;;5071344;28;20032;-81
2020/12/13 09:57:25;;;;;;;186.23;49.45;;;5.70;99.90;;;;;;5087239;28;20100;-80
2020/12/13 09:59:51;;;;;;;224.13;48.70;;;5.80;99.90;;;;;;5087157;28;20048;-82
2020/12/13 10:02:16;;;;;;;183.98;49.10;;;5.80;99.90;;;;;;5091277;28;20071;-82
2020/12/13 10:04:42;;;;;;;176.27;48.92;;;5.90;99.90;;;;;;5082978;28;20040;-81
2020/12/13 10:07:28;;;;;;;198.45;51.15;;;5.90;99.90;;;;;;5027286;28;20053;-82
2020/12/13 10:09:53;;;;;;;248.48;51.35;;;5.90;99.90;;;;;;5024523;28;20071;-82
2020/12/13 10:12:20;;;;;;;192.18;51.42;;;5.90;99.90;;;;;;5027660;28;20034;-81
2020/12/13 10:14:46;;;;;;;187.70;50.10;;;5.90;99.90;;;;;;5027073;28;20103;-80
2020/12/13 10:17:12;;;;;;;289.15;54.78;;;6.00;99.90;;;;;;4995272;28;20042;-80
2020/12/13 10:19:38;;;;;;;228.63;51.33;;;6.00;99.90;;;;;;5011441;28;20029;-81
2020/12/13 10:22:04;;;;;;;243.63;53.53;;;6.00;99.90;;;;;;5010775;28;20037;-82
2020/12/13 10:24:29;;;;;;;230.48;51.72;;;6.00;99.90;;;;;;5044096;28;20085;-80
2020/12/13 10:26:55;;;;;;;244.60;51.72;;;5.90;99.90;;;;;;5011385;28;20037;-81
2020/12/13 10:29:21;;;;;;;231.52;51.47;;;6.00;99.90;;;;;;5014995;28;20029;-81
2020/12/13 10:31:47;;;;;;;295.20;54.80;;;6.00;99.90;;;;;;5031476;28;20032;-81
2020/12/13 10:34:14;;;;;;;233.48;52.72;;;6.00;99.90;;;;;;5016859;28;20035;-80
2020/12/13 10:36:40;;;;;;;173.77;49.47;;;6.00;99.90;;;;;;5029659;28;20063;-79
2020/12/13 10:39:08;;;;;;;204.15;53.10;;;6.10;99.90;;;;;;5071700;28;20036;-80
2020/12/13 10:41:35;;;;;;;260.10;54.65;;;6.10;99.90;;;;;;5112397;27;20559;-81
2020/12/13 10:44:01;;;;;;;228.15;52.83;;;6.10;99.90;;;;;;5132716;27;20064;-81
2020/12/13 10:46:27;;;;;;;154.15;45.33;;;6.20;99.90;;;;;;5154064;27;20356;-81
2020/12/13 10:48:53;;;;;;;134.40;44.85;;;6.20;99.90;;;;;;5136656;27;20052;-81
2020/12/13 10:51:20;;;;;;;118.30;42.22;;;6.10;99.90;;;;;;5136387;27;20114;-81
2020/12/13 10:53:47;;;;;;;112.63;39.50;;;6.30;99.90;;;;;;5136562;27;20519;-81
2020/12/13 10:56:14;;;;;;;119.95;41.78;;;6.40;99.90;;;;;;5149218;27;20074;-82
2020/12/13 10:58:42;;;;;;;117.85;42.75;;;6.40;99.90;;;;;;5136401;27;20463;-82
2020/12/13 11:01:09;;;;;;;113.68;42.20;;;6.40;99.90;;;;;;5135443;27;20398;-82
2020/12/13 11:03:35;;;;;;;99.57;36.28;;;6.40;99.90;;;;;;5137239;27;20018;-82
2020/12/13 11:06:01;;;;;;;100.00;38.60;;;6.40;99.90;;;;;;5155044;27;20042;-81
2020/12/13 11:08:26;;;;;;;103.97;37.67;;;6.60;99.90;;;;;;5154994;27;20112;-82
2020/12/13 11:10:52;;;;;;;94.45;35.25;;;6.60;99.90;;;;;;5136239;27;20071;-82
2020/12/13 11:13:18;;;;;;;90.90;35.45;;;6.60;99.90;;;;;;5135342;27;20027;-81
2020/12/13 11:15:46;;;;;;;90.60;35.47;;;6.60;99.90;;;;;;5141492;27;20039;-81
2020/12/13 11:18:12;;;;;;;112.13;38.67;;;6.70;99.90;;;;;;5115785;27;20407;-81
2020/12/13 11:20:37;;;;;;;80.40;34.20;;;6.70;99.90;;;;;;5115639;27;20032;-80
2020/12/13 11:23:04;;;;;;;78.43;34.03;;;6.70;99.90;;;;;;5116137;27;20046;-81
2020/12/13 11:25:29;;;;;;;78.10;32.35;;;6.90;99.90;;;;;;5120889;27;20035;-81
2020/12/13 11:27:55;;;;;;;86.72;34.00;;;6.80;99.90;;;;;;5154813;27;20074;-80
2020/12/13 11:30:21;;;;;;;76.68;34.67;;;6.80;99.90;;;;;;5136499;27;20026;-81
2020/12/13 11:32:47;;;;;;;77.25;33.40;;;6.60;99.90;;;;;;5156816;27;20019;-81
2020/12/13 11:35:13;;;;;;;70.93;31.85;;;6.60;99.90;;;;;;5128356;27;20033;-81
2020/12/13 11:37:39;;;;;;;80.10;32.70;;;6.70;99.90;;;;;;5117727;27;20090;-81
2020/12/13 11:40:06;;;;;;;78.10;31.95;;;6.70;99.90;;;;;;5119380;27;20027;-81
2020/12/13 11:42:32;;;;;;;83.20;32.08;;;6.70;99.90;;;;;;5122130;27;20066;-81
2020/12/13 11:44:58;;;;;;;69.47;29.77;;;6.70;99.90;;;;;;5133417;27;20039;-81
2020/12/13 11:47:25;;;;;;;74.40;32.35;;;6.90;99.90;;;;;;5140571;27;20008;-81
2020/12/13 11:49:50;;;;;;;83.57;35.97;;;6.90;99.90;;;;;;5140697;27;20103;-81
2020/12/13 11:52:16;;;;;;;84.82;35.00;;;7.00;99.90;;;;;;5139400;27;20031;-80
2020/12/13 11:54:43;;;;;;;78.40;36.35;;;7.00;99.90;;;;;;5141230;27;20106;-82
2020/12/13 11:57:10;;;;;;;80.88;36.33;;;7.00;99.90;;;;;;5156728;27;20000;-81
2020/12/13 11:59:36;;;;;;;80.00;36.72;;;7.10;99.90;;;;;;5144346;27;20042;-82
2020/12/13 12:02:01;;;;;;;87.72;35.97;;;7.10;99.90;;;;;;5160905;27;20018;-80
2020/12/13 12:04:27;;;;;;;84.60;35.28;;;7.10;99.90;;;;;;5178662;27;20103;-81
2020/12/13 12:06:53;;;;;;;83.53;35.67;;;6.90;99.90;;;;;;5157804;27;20035;-82
2020/12/13 12:09:18;;;;;;;80.10;35.78;;;6.80;99.90;;;;;;5114247;28;20384;-81
2020/12/13 12:11:44;;;;;;;80.38;32.72;;;6.90;99.90;;;;;;5115215;28;20044;-82
2020/12/13 12:14:11;;;;;;;97.65;38.50;;;7.00;99.90;;;;;;5103094;28;20050;-81
2020/12/13 12:16:40;;;;;;;89.47;39.17;;;6.90;99.90;;;;;;5075213;28;20020;-81
2020/12/13 12:19:06;;;;;;;92.25;38.50;;;6.80;99.90;;;;;;5075300;28;20081;-82
2020/12/13 12:21:34;;;;;;;94.63;39.88;;;6.90;99.90;;;;;;5090105;28;20052;-81
2020/12/13 12:24:06;;;;;;;114.20;42.75;;;6.90;99.90;;;;;;5090370;28;20078;-82
2020/12/13 12:26:32;;;;;;;119.25;44.35;;;6.70;99.90;;;;;;5073413;28;20128;-81
2020/12/13 12:28:59;;;;;;;119.25;43.42;;;6.60;99.90;;;;;;5090095;28;20039;-81
2020/12/13 12:31:26;;;;;;;114.50;46.45;;;6.60;99.90;;;;;;5038606;28;20037;-82
2020/12/13 12:33:52;;;;;;;122.88;46.33;;;6.60;99.90;;;;;;5049153;28;20049;-81
2020/12/13 12:36:20;;;;;;;118.57;45.28;;;6.60;99.90;;;;;;5030546;28;20437;-82